createdAt,value
2019-05-18T00:00:01.285Z,10.70
2019-05-18T00:02:27.510Z,10.70
2019-05-18T00:04:53.785Z,10.70
2019-05-18T00:07:20.010Z,10.70
2019-05-18T00:09:46.274Z,10.70
2019-05-18T00:12:12.510Z,10.60
2019-05-18T00:14:38.750Z,10.60
2019-05-18T00:17:07.879Z,10.60
2019-05-18T00:19:33.103Z,10.50
2019-05-18T00:21:59.378Z,10.50
2019-05-18T00:24:25.613Z,10.50
2019-05-18T00:26:51.849Z,10.40
2019-05-18T00:29:18.082Z,10.40
2019-05-18T00:31:58.897Z,10.40
2019-05-18T00:34:25.107Z,10.40
2019-05-18T00:36:51.340Z,10.30
2019-05-18T00:39:17.599Z,10.30
2019-05-18T00:41:45.554Z,10.30
2019-05-18T00:44:11.986Z,10.30
2019-05-18T00:46:38.218Z,10.30
2019-05-18T00:49:04.550Z,10.20
2019-05-18T00:51:30.793Z,10.20
2019-05-18T00:53:57.014Z,10.20
2019-05-18T00:56:23.288Z,10.10
2019-05-18T00:58:49.524Z,10.10
2019-05-18T01:01:15.772Z,10.10
2019-05-18T01:03:42.008Z,10.10
2019-05-18T01:06:08.246Z,10.10
2019-05-18T01:08:34.478Z,10.00
2019-05-18T01:11:00.706Z,10.00
2019-05-18T01:13:26.977Z,10.00
2019-05-18T01:15:53.206Z,10.00
2019-05-18T01:18:19.662Z,10.00
2019-05-18T01:20:45.886Z,10.00
2019-05-18T01:23:12.211Z,9.90
2019-05-18T01:25:38.463Z,9.90
2019-05-18T01:28:04.794Z,9.90
2019-05-18T01:30:31.165Z,9.90
2019-05-18T01:32:57.395Z,9.90
2019-05-18T01:35:23.747Z,9.90
2019-05-18T01:37:50.005Z,9.90
2019-05-18T01:40:16.842Z,9.90
2019-05-18T01:42:43.091Z,9.90
2019-05-18T01:45:16.769Z,9.90
2019-05-18T01:48:12.236Z,9.80
2019-05-18T01:50:25.024Z,9.80
2019-05-18T01:52:51.267Z,9.80
2019-05-18T01:55:17.495Z,9.80
2019-05-18T01:57:43.737Z,9.70
2019-05-18T02:00:11.280Z,9.70
2019-05-18T02:02:37.542Z,9.70
2019-05-18T02:05:04.899Z,9.70
2019-05-18T02:07:31.116Z,9.70
2019-05-18T02:09:57.366Z,9.60
2019-05-18T02:12:23.601Z,9.60
2019-05-18T02:14:49.829Z,9.50
2019-05-18T02:17:16.064Z,9.50
2019-05-18T02:19:42.336Z,9.50
2019-05-18T02:22:08.623Z,9.50
2019-05-18T02:24:34.945Z,9.40
2019-05-18T02:27:01.207Z,9.40
2019-05-18T02:29:27.443Z,9.40
2019-05-18T02:31:53.678Z,9.40
2019-05-18T02:34:19.908Z,9.30
2019-05-18T02:36:46.188Z,9.30
2019-05-18T02:39:12.411Z,9.30
2019-05-18T02:41:38.646Z,9.30
2019-05-18T02:44:05.280Z,9.20
2019-05-18T02:46:31.522Z,9.30
2019-05-18T02:48:57.763Z,9.20
2019-05-18T02:51:23.989Z,9.20
2019-05-18T02:53:50.256Z,9.20
2019-05-18T02:56:16.501Z,9.20
2019-05-18T02:58:42.724Z,9.20
2019-05-18T03:01:08.974Z,9.20
2019-05-18T03:03:35.474Z,9.20
2019-05-18T03:06:01.912Z,9.20
2019-05-18T03:08:28.254Z,9.20
2019-05-18T03:10:54.738Z,9.20
2019-05-18T03:13:21.175Z,9.20
2019-05-18T03:15:47.647Z,9.10
2019-05-18T03:18:13.886Z,9.10
2019-05-18T03:20:40.118Z,9.10
2019-05-18T03:23:06.457Z,9.10
2019-05-18T03:25:32.694Z,9.10
2019-05-18T03:27:59.315Z,9.10
2019-05-18T03:30:25.538Z,9.00
2019-05-18T03:32:52.295Z,9.00
2019-05-18T03:35:18.660Z,9.00
2019-05-18T03:37:45.477Z,9.00
2019-05-18T03:40:12.322Z,9.00
2019-05-18T03:42:38.542Z,9.00
2019-05-18T03:45:05.941Z,9.00
2019-05-18T03:47:32.272Z,9.00
2019-05-18T03:49:58.534Z,8.90
2019-05-18T03:52:24.795Z,9.00
2019-05-18T03:54:51.064Z,9.00
2019-05-18T03:57:17.539Z,9.00
2019-05-18T03:59:43.788Z,9.00
2019-05-18T04:02:10.044Z,9.00
2019-05-18T04:04:36.284Z,9.00
2019-05-18T04:07:02.544Z,9.00
2019-05-18T04:09:29.216Z,9.10
2019-05-18T04:11:55.453Z,9.10
2019-05-18T04:14:21.697Z,9.10
2019-05-18T04:16:47.963Z,9.10
2019-05-18T04:19:14.322Z,9.20
2019-05-18T04:21:40.870Z,9.30
2019-05-18T04:24:07.103Z,9.30
2019-05-18T04:26:33.326Z,9.40
2019-05-18T04:28:59.572Z,9.50
2019-05-18T04:31:25.796Z,9.70
2019-05-18T04:33:52.014Z,9.90
2019-05-18T04:36:18.304Z,10.10
2019-05-18T04:38:44.541Z,10.40
2019-05-18T04:41:10.785Z,10.90
2019-05-18T04:43:37.059Z,11.40
2019-05-18T04:46:03.336Z,11.90
2019-05-18T04:48:29.564Z,12.50
2019-05-18T04:50:55.807Z,12.90
2019-05-18T04:53:22.095Z,13.40
2019-05-18T04:55:48.312Z,14.00
2019-05-18T04:58:14.565Z,14.50
2019-05-18T05:00:41.179Z,15.00
2019-05-18T05:03:07.375Z,15.50
2019-05-18T05:05:33.594Z,16.10
2019-05-18T05:07:59.838Z,16.70
2019-05-18T05:10:26.223Z,17.40
2019-05-18T05:12:52.715Z,18.10
2019-05-18T05:15:19.247Z,18.80
2019-05-18T05:17:45.482Z,19.50
2019-05-18T05:20:19.856Z,20.10
2019-05-18T05:22:42.034Z,20.70
2019-05-18T05:25:08.773Z,21.30
2019-05-18T05:27:35.043Z,21.80
2019-05-18T05:30:05.607Z,22.30
2019-05-18T05:32:32.173Z,22.80
2019-05-18T05:34:58.408Z,23.20
2019-05-18T05:37:24.940Z,23.60
2019-05-18T05:39:51.170Z,23.90
2019-05-18T05:42:17.520Z,24.30
2019-05-18T05:44:43.776Z,24.50
2019-05-18T05:47:10.027Z,24.70
2019-05-18T05:49:36.291Z,24.80
2019-05-18T05:52:02.729Z,24.80
2019-05-18T05:54:28.959Z,25.00
2019-05-18T05:56:55.191Z,25.10
2019-05-18T05:59:21.442Z,25.20
2019-05-18T06:01:47.703Z,25.30
2019-05-18T06:04:13.934Z,25.30
2019-05-18T06:06:40.177Z,25.50
2019-05-18T06:09:06.499Z,25.50
2019-05-18T06:11:32.760Z,25.60
2019-05-18T06:13:58.986Z,25.60
2019-05-18T06:16:25.543Z,25.60
2019-05-18T06:18:51.820Z,25.70
2019-05-18T06:21:18.074Z,25.90
2019-05-18T06:23:44.333Z,25.90
2019-05-18T06:26:10.584Z,26.00
2019-05-18T06:28:36.814Z,26.10
2019-05-18T06:31:03.179Z,26.20
2019-05-18T06:33:29.406Z,26.20
2019-05-18T06:35:55.693Z,26.20
2019-05-18T06:38:21.938Z,26.20
2019-05-18T06:40:48.188Z,26.10
2019-05-18T06:43:14.415Z,26.20
2019-05-18T06:45:40.676Z,26.30
2019-05-18T06:48:06.934Z,26.40
2019-05-18T06:50:33.165Z,26.50
2019-05-18T06:52:59.436Z,26.70
2019-05-18T06:55:26.376Z,26.80
2019-05-18T06:57:56.692Z,27.00
2019-05-18T07:00:23.790Z,27.10
2019-05-18T07:02:50.067Z,27.20
2019-05-18T07:05:16.286Z,27.40
2019-05-18T07:07:42.817Z,27.50
2019-05-18T07:10:10.208Z,27.50
2019-05-18T07:12:36.454Z,27.60
2019-05-18T07:15:06.317Z,27.60
2019-05-18T07:17:34.597Z,27.60
2019-05-18T07:20:00.860Z,27.50
2019-05-18T07:22:27.082Z,27.40
2019-05-18T07:27:39.788Z,27.40
2019-05-18T07:30:08.491Z,27.40
2019-05-18T07:32:34.820Z,27.40
2019-05-18T07:35:01.063Z,27.40
2019-05-18T07:37:27.427Z,27.30
2019-05-18T07:39:53.668Z,27.20
2019-05-18T07:42:19.917Z,27.00
2019-05-18T07:44:46.465Z,27.00
2019-05-18T07:47:12.721Z,26.90
2019-05-18T07:49:38.946Z,26.90
2019-05-18T07:52:05.199Z,26.90
2019-05-18T07:54:31.427Z,26.90
2019-05-18T07:56:57.662Z,26.90
2019-05-18T07:59:23.999Z,26.80
2019-05-18T08:01:50.310Z,26.70
2019-05-18T08:04:16.540Z,26.60
2019-05-18T08:06:42.791Z,26.40
2019-05-18T08:09:09.221Z,26.30
2019-05-18T08:11:35.456Z,26.20
2019-05-18T08:14:01.699Z,26.10
2019-05-18T08:16:27.936Z,26.00
2019-05-18T08:18:54.173Z,26.10
2019-05-18T08:21:20.437Z,26.00
2019-05-18T08:23:46.715Z,26.00
2019-05-18T08:26:12.910Z,25.90
2019-05-18T08:28:39.161Z,26.00
2019-05-18T08:31:05.396Z,25.90
2019-05-18T08:33:31.735Z,25.80
2019-05-18T08:35:58.416Z,25.60
2019-05-18T08:38:24.684Z,25.40
2019-05-18T08:40:50.912Z,25.20
2019-05-18T08:43:17.163Z,25.20
2019-05-18T08:45:43.859Z,25.10
2019-05-18T08:48:10.043Z,24.90
2019-05-18T08:50:36.279Z,24.90
2019-05-18T08:53:02.659Z,25.00
2019-05-18T08:55:28.913Z,25.10
2019-05-18T08:57:55.247Z,25.30
2019-05-18T09:00:21.898Z,25.60
2019-05-18T09:02:48.956Z,25.80
2019-05-18T09:05:16.180Z,26.20
2019-05-18T09:07:42.989Z,26.40
2019-05-18T09:10:11.314Z,26.60
2019-05-18T09:12:38.039Z,26.90
2019-05-18T09:15:08.991Z,27.00
2019-05-18T09:17:37.918Z,26.70
2019-05-18T09:20:06.818Z,26.40
2019-05-18T09:22:33.871Z,26.20
2019-05-18T09:25:00.690Z,26.10
2019-05-18T09:27:27.090Z,25.90
2019-05-18T09:29:54.230Z,25.80
2019-05-18T09:32:21.065Z,25.80
2019-05-18T09:34:47.971Z,25.90
2019-05-18T09:37:14.951Z,25.90
2019-05-18T09:39:42.242Z,25.90
2019-05-18T09:42:09.100Z,25.90
2019-05-18T09:44:36.166Z,25.90
2019-05-18T09:47:02.677Z,25.80
2019-05-18T09:49:28.900Z,25.80
2019-05-18T09:52:15.110Z,25.60
2019-05-18T09:54:41.346Z,25.50
2019-05-18T09:57:07.700Z,25.50
2019-05-18T09:59:33.934Z,25.40
2019-05-18T10:02:00.207Z,25.30
2019-05-18T10:04:26.462Z,25.20
2019-05-18T10:06:53.151Z,25.20
2019-05-18T10:09:19.417Z,25.20
2019-05-18T10:11:45.645Z,25.20
2019-05-18T10:14:11.891Z,25.30
2019-05-18T10:16:38.137Z,25.20
2019-05-18T10:19:04.417Z,25.10
2019-05-18T10:21:30.720Z,25.10
2019-05-18T10:23:56.931Z,25.20
2019-05-18T10:26:23.186Z,25.00
2019-05-18T10:28:49.460Z,25.00
2019-05-18T10:31:15.731Z,25.00
2019-05-18T10:33:41.972Z,24.90
2019-05-18T10:36:11.465Z,24.90
2019-05-18T10:38:36.605Z,24.70
2019-05-18T10:41:03.134Z,24.60
2019-05-18T10:43:29.415Z,24.60
2019-05-18T10:45:55.659Z,24.60
2019-05-18T10:48:22.062Z,24.50
2019-05-18T10:50:48.301Z,24.30
2019-05-18T10:53:27.761Z,24.30
2019-05-18T10:55:44.047Z,24.00
2019-05-18T10:58:10.287Z,23.90
2019-05-18T11:00:36.707Z,23.80
2019-05-18T11:03:03.174Z,23.80
2019-05-18T11:05:29.524Z,23.80
2019-05-18T11:07:55.755Z,23.80
2019-05-18T11:10:28.853Z,23.70
2019-05-18T11:12:55.103Z,23.70
2019-05-18T11:15:22.104Z,23.90
2019-05-18T11:17:48.966Z,24.00
2019-05-18T11:20:17.691Z,24.10
2019-05-18T11:22:44.073Z,23.80
2019-05-18T11:25:11.608Z,23.70
2019-05-18T11:27:38.105Z,23.50
2019-05-18T11:30:06.560Z,23.40
2019-05-18T11:32:32.892Z,23.00
2019-05-18T11:34:59.221Z,22.80
2019-05-18T11:37:25.427Z,22.80
2019-05-18T11:39:51.664Z,22.60
2019-05-18T11:42:17.897Z,22.50
2019-05-18T11:44:44.202Z,22.60
2019-05-18T11:47:10.430Z,22.60
2019-05-18T11:49:36.692Z,22.60
2019-05-18T11:52:03.015Z,22.30
2019-05-18T11:54:29.230Z,22.30
2019-05-18T11:56:55.531Z,22.40
2019-05-18T11:59:21.727Z,22.40
2019-05-18T12:01:48.008Z,22.40
2019-05-18T12:04:14.247Z,22.40
2019-05-18T12:06:40.573Z,22.50
2019-05-18T12:09:06.830Z,22.50
2019-05-18T12:11:33.047Z,22.40
2019-05-18T12:13:59.441Z,22.30
2019-05-18T12:16:25.681Z,22.30
2019-05-18T12:18:51.955Z,22.20
2019-05-18T12:21:18.193Z,22.10
2019-05-18T12:23:44.453Z,22.10
2019-05-18T12:26:10.714Z,22.00
2019-05-18T12:28:37.207Z,21.90
2019-05-18T12:31:03.508Z,21.90
2019-05-18T12:33:29.730Z,21.90
2019-05-18T12:35:56.027Z,22.00
2019-05-18T12:38:22.256Z,22.00
2019-05-18T12:40:49.791Z,22.10
2019-05-18T12:43:16.152Z,22.10
2019-05-18T12:45:42.579Z,22.00
2019-05-18T12:48:08.808Z,22.00
2019-05-18T12:50:36.488Z,22.00
2019-05-18T12:53:02.964Z,22.00
2019-05-18T12:55:29.207Z,22.00
2019-05-18T12:58:00.617Z,22.10
2019-05-18T13:00:28.505Z,22.10
2019-05-18T13:02:56.395Z,22.20
2019-05-18T13:05:24.226Z,22.20
2019-05-18T13:07:51.720Z,22.20
2019-05-18T13:10:23.456Z,22.30
2019-05-18T13:12:53.269Z,22.30
2019-05-18T13:15:24.960Z,22.30
2019-05-18T13:17:51.638Z,22.30
2019-05-18T13:20:18.998Z,22.40
2019-05-18T13:22:45.530Z,22.50
2019-05-18T13:25:12.464Z,22.50
2019-05-18T13:27:40.215Z,22.50
2019-05-18T13:30:10.650Z,22.50
2019-05-18T13:32:36.911Z,22.50
2019-05-18T13:35:08.271Z,22.50
2019-05-18T13:37:34.509Z,22.40
2019-05-18T13:40:01.051Z,22.40
2019-05-18T13:42:27.294Z,22.40
2019-05-18T13:44:53.747Z,22.40
2019-05-18T13:47:19.997Z,22.40
2019-05-18T13:49:46.262Z,22.50
2019-05-18T13:52:15.792Z,22.50
2019-05-18T13:54:43.075Z,22.60
2019-05-18T13:57:09.311Z,22.70
2019-05-18T13:59:35.562Z,22.70
2019-05-18T14:02:01.873Z,22.70
2019-05-18T14:04:28.197Z,22.60
2019-05-18T14:06:54.523Z,22.60
2019-05-18T14:09:20.753Z,22.50
2019-05-18T14:11:47.130Z,22.40
2019-05-18T14:14:13.369Z,22.30
2019-05-18T14:16:39.724Z,22.30
2019-05-18T14:19:06.006Z,22.20
2019-05-18T14:21:32.246Z,22.10
2019-05-18T14:23:59.690Z,22.10
2019-05-18T14:26:26.059Z,22.20
2019-05-18T14:28:53.839Z,22.20
2019-05-18T14:31:26.193Z,22.20
2019-05-18T14:33:59.965Z,22.20
2019-05-18T14:36:32.301Z,22.20
2019-05-18T14:38:59.582Z,22.10
2019-05-18T14:41:25.880Z,22.10
2019-05-18T14:43:52.136Z,22.10
2019-05-18T14:46:19.383Z,22.10
2019-05-18T14:48:45.863Z,22.00
2019-05-18T14:51:16.905Z,22.00
2019-05-18T14:53:43.831Z,22.00
2019-05-18T14:56:10.099Z,22.00
2019-05-18T14:58:36.340Z,21.90
2019-05-18T15:01:02.931Z,21.90
2019-05-18T15:03:29.154Z,21.80
2019-05-18T15:05:56.041Z,21.80
2019-05-18T15:08:23.026Z,21.80
2019-05-18T15:10:50.040Z,21.70
2019-05-18T15:13:17.184Z,21.70
2019-05-18T15:15:44.237Z,21.70
2019-05-18T15:18:10.510Z,21.70
2019-05-18T15:20:37.519Z,21.70
2019-05-18T15:23:03.833Z,21.60
2019-05-18T15:25:30.085Z,21.70
2019-05-18T15:27:56.391Z,21.70
2019-05-18T15:30:23.944Z,21.70
2019-05-18T15:32:50.288Z,21.60
2019-05-18T15:35:17.030Z,21.60
2019-05-18T15:37:43.976Z,21.60
2019-05-18T15:40:12.368Z,21.60
2019-05-18T15:42:38.617Z,21.50
2019-05-18T15:45:06.462Z,21.50
2019-05-18T15:47:32.674Z,21.50
2019-05-18T15:49:58.945Z,21.50
2019-05-18T15:52:25.175Z,21.50
2019-05-18T15:54:52.291Z,21.60
2019-05-18T15:57:19.563Z,21.60
2019-05-18T15:59:45.803Z,21.60
2019-05-18T16:02:12.582Z,21.60
2019-05-18T16:04:38.910Z,21.60
2019-05-18T16:07:06.743Z,21.50
2019-05-18T16:09:33.023Z,21.50
2019-05-18T16:11:59.256Z,21.50
2019-05-18T16:14:25.603Z,21.40
2019-05-18T16:16:54.912Z,21.40
2019-05-18T16:19:20.075Z,21.30
2019-05-18T16:21:46.313Z,21.30
2019-05-18T16:24:12.609Z,21.20
2019-05-18T16:26:38.953Z,21.10
2019-05-18T16:29:05.286Z,21.10
2019-05-18T16:31:31.544Z,21.00
2019-05-18T16:33:57.798Z,20.90
2019-05-18T16:36:24.094Z,20.90
2019-05-18T16:38:52.298Z,20.90
2019-05-18T16:41:18.538Z,20.90
2019-05-18T16:43:44.792Z,20.90
2019-05-18T16:46:11.155Z,20.80
2019-05-18T16:48:39.552Z,20.70
2019-05-18T16:51:05.808Z,20.70
2019-05-18T16:53:32.061Z,20.70
2019-05-18T16:55:58.313Z,20.60
2019-05-18T16:58:25.964Z,20.70
2019-05-18T17:00:52.324Z,20.70
2019-05-18T17:03:18.662Z,20.60
2019-05-18T17:05:45.256Z,20.60
2019-05-18T17:08:11.505Z,20.60
2019-05-18T17:10:37.766Z,20.60
2019-05-18T17:13:04.120Z,20.60
2019-05-18T17:15:30.372Z,20.60
2019-05-18T17:17:56.586Z,20.50
2019-05-18T17:20:22.930Z,20.60
2019-05-18T17:22:49.197Z,20.60
2019-05-18T17:25:15.610Z,20.60
2019-05-18T17:27:41.919Z,20.50
2019-05-18T17:30:09.444Z,20.50
2019-05-18T17:32:35.698Z,20.40
2019-05-18T17:35:07.653Z,20.40
2019-05-18T17:37:34.081Z,20.40
2019-05-18T17:40:00.375Z,20.40
2019-05-18T17:42:26.617Z,20.40
2019-05-18T17:44:52.892Z,20.40
2019-05-18T17:47:19.280Z,20.40
2019-05-18T17:49:48.773Z,20.30
2019-05-18T17:52:15.000Z,20.30
2019-05-18T17:54:41.252Z,20.20
2019-05-18T17:57:09.081Z,20.30
2019-05-18T17:59:37.271Z,20.20
2019-05-18T18:02:03.657Z,20.20
2019-05-18T18:04:54.182Z,20.20
2019-05-18T18:07:20.001Z,20.20
2019-05-18T18:09:46.473Z,20.10
2019-05-18T18:12:12.751Z,20.10
2019-05-18T18:14:38.981Z,20.00
2019-05-18T18:17:05.295Z,20.00
2019-05-18T18:19:31.548Z,19.90
2019-05-18T18:21:57.797Z,19.90
2019-05-18T18:24:24.023Z,19.80
2019-05-18T18:27:34.019Z,19.70
2019-05-18T18:30:00.773Z,19.70
2019-05-18T18:32:27.019Z,19.60
2019-05-18T18:34:53.388Z,19.60
2019-05-18T18:37:20.019Z,19.60
2019-05-18T18:39:46.276Z,19.50
2019-05-18T18:42:12.477Z,19.40
2019-05-18T18:44:38.828Z,19.30
2019-05-18T18:47:05.102Z,19.30
2019-05-18T18:49:31.623Z,19.20
2019-05-18T18:52:04.866Z,19.20
2019-05-18T18:54:31.648Z,19.10
2019-05-18T18:56:57.980Z,19.10
2019-05-18T18:59:24.262Z,19.00
2019-05-18T19:02:43.117Z,18.90
2019-05-18T19:05:10.012Z,18.90
2019-05-18T19:07:36.288Z,18.80
2019-05-18T19:10:05.240Z,18.70
2019-05-18T19:12:31.815Z,18.60
2019-05-18T19:14:58.083Z,18.60
2019-05-18T19:17:24.342Z,18.50
2019-05-18T19:19:51.141Z,18.50
2019-05-18T19:22:22.247Z,18.40
2019-05-18T19:24:55.641Z,18.30
2019-05-18T19:27:20.856Z,18.20
2019-05-18T19:29:50.654Z,18.20
2019-05-18T19:32:17.432Z,18.10
2019-05-18T19:34:43.745Z,18.10
2019-05-18T19:37:09.995Z,18.00
2019-05-18T19:39:36.235Z,17.90
2019-05-18T19:42:02.519Z,17.80
2019-05-18T19:44:28.753Z,17.60
2019-05-18T19:46:54.981Z,17.50
2019-05-18T19:49:21.414Z,17.50
2019-05-18T19:51:47.654Z,17.40
2019-05-18T19:54:13.895Z,17.40
2019-05-18T19:56:42.631Z,17.40
2019-05-18T19:59:08.312Z,17.40
2019-05-18T20:01:34.631Z,17.30
2019-05-18T20:04:00.837Z,17.20
2019-05-18T20:06:27.126Z,17.20
2019-05-18T20:08:53.458Z,17.10
2019-05-18T20:11:19.700Z,17.00
2019-05-18T20:13:45.935Z,17.00
2019-05-18T20:16:12.172Z,16.80
2019-05-18T20:18:38.433Z,16.80
2019-05-18T20:21:06.123Z,16.70
2019-05-18T20:23:32.387Z,16.70
2019-05-18T20:25:58.874Z,16.50
2019-05-18T20:28:25.176Z,16.40
2019-05-18T20:30:51.425Z,16.30
2019-05-18T20:33:17.700Z,16.30
2019-05-18T20:35:43.954Z,16.30
2019-05-18T20:38:10.183Z,16.20
2019-05-18T20:40:36.657Z,16.10
2019-05-18T20:43:02.929Z,16.10
2019-05-18T20:45:29.164Z,16.10
2019-05-18T20:47:55.432Z,16.10
2019-05-18T20:50:21.662Z,16.10
2019-05-18T20:52:47.882Z,16.00
2019-05-18T20:55:15.899Z,16.00
2019-05-18T20:57:43.343Z,15.90
2019-05-18T21:00:10.181Z,15.90
2019-05-18T21:02:36.510Z,15.80
2019-05-18T21:05:04.475Z,15.80
2019-05-18T21:07:30.691Z,15.70
2019-05-18T21:09:56.931Z,15.70
2019-05-18T21:12:23.169Z,15.60
2019-05-18T21:14:49.398Z,15.70
2019-05-18T21:17:15.612Z,15.70
2019-05-18T21:19:41.956Z,15.60
2019-05-18T21:22:08.239Z,15.60
2019-05-18T21:24:35.214Z,15.60
2019-05-18T21:27:01.441Z,15.60
2019-05-18T21:29:27.687Z,15.60
2019-05-18T21:31:54.012Z,15.60
2019-05-18T21:34:20.249Z,15.50
2019-05-18T21:36:46.482Z,15.40
2019-05-18T21:39:12.771Z,15.30
2019-05-18T21:41:39.010Z,15.30
2019-05-18T21:44:05.229Z,15.20
2019-05-18T21:46:31.575Z,15.00
2019-05-18T21:48:57.856Z,15.00
2019-05-18T21:51:25.552Z,14.90
2019-05-18T21:53:51.810Z,14.80
2019-05-18T21:56:18.038Z,14.70
2019-05-18T21:58:44.306Z,14.60
2019-05-18T22:01:10.738Z,14.50
2019-05-18T22:03:36.953Z,14.50
2019-05-18T22:06:03.213Z,14.30
2019-05-18T22:08:29.454Z,14.20
2019-05-18T22:10:55.800Z,14.10
2019-05-18T22:13:22.044Z,14.00
2019-05-18T22:15:48.309Z,13.90
2019-05-18T22:18:24.015Z,13.80
2019-05-18T22:20:44.323Z,13.80
2019-05-18T22:23:10.762Z,13.70
2019-05-18T22:25:38.885Z,13.60
2019-05-18T22:28:06.702Z,13.50
2019-05-18T22:30:33.059Z,13.40
2019-05-18T22:32:59.380Z,13.40
2019-05-18T22:35:25.685Z,13.30
2019-05-18T22:37:52.021Z,13.20
2019-05-18T22:40:18.463Z,13.20
2019-05-18T22:42:45.059Z,13.10
2019-05-18T22:45:11.779Z,13.00
2019-05-18T22:47:38.622Z,13.00
2019-05-18T22:50:05.974Z,12.90
2019-05-18T22:52:32.182Z,12.80
2019-05-18T22:54:58.436Z,12.80
2019-05-18T22:57:24.692Z,12.80
2019-05-18T22:59:50.926Z,12.70
2019-05-18T23:02:17.144Z,12.60
2019-05-18T23:04:43.427Z,12.60
2019-05-18T23:07:09.657Z,12.50
2019-05-18T23:09:35.916Z,12.50
2019-05-18T23:12:02.154Z,12.50
2019-05-18T23:14:28.369Z,12.40
2019-05-18T23:16:54.616Z,12.40
2019-05-18T23:19:20.842Z,12.30
2019-05-18T23:21:47.089Z,12.30
2019-05-18T23:24:13.329Z,12.20
2019-05-18T23:26:39.539Z,12.20
2019-05-18T23:29:05.788Z,12.10
2019-05-18T23:31:32.005Z,12.10
2019-05-18T23:33:58.211Z,12.10
2019-05-18T23:36:24.457Z,12.10
2019-05-18T23:38:50.713Z,12.00
2019-05-18T23:41:16.948Z,12.00
2019-05-18T23:43:43.207Z,12.00
2019-05-18T23:46:09.417Z,12.00
2019-05-18T23:48:35.658Z,11.90
2019-05-18T23:51:01.886Z,11.90
2019-05-18T23:53:28.228Z,11.90
2019-05-18T23:55:54.496Z,11.90
2019-05-18T23:58:21.024Z,11.80
